CSH4590 ZSXZ-ZPLJ
Flight info
| Callsign | CSH4590 |
|---|---|
| Flight time | N/A |
| Altitude | 32100 |
| Route | HFE R343 WHA A581 IDGAG W80 OPAMU W238 WESTI WLY W162 CEH |
| Aircraft | B738/M-SDE2E3FGHIM3RWY/EB1 |
Departure
| Time | 2026-05-04 02:14 |
|---|---|
| Airport | Xuzhou Guanyin International Airport (ZSXZ) |
Arrival
| Time | N/A |
|---|---|
| Airport | Lijiang Sanyi International Airport (ZPLJ) |
| Time | Latitude | Longitude | Altitude | Speed | Heading |
|---|---|---|---|---|---|
| 2026-05-04 01:48 | 34.05590 | 117.55179 | 113 ft | 0 kts | 176° |
| 2026-05-04 02:02 | 34.05666 | 117.55183 | 114 ft | 0 kts | 103° |
| 2026-05-04 02:02 | 34.05667 | 117.55183 | 113 ft | 0 kts | 82° |
| 2026-05-04 02:05 | 34.05667 | 117.55184 | 113 ft | 1 kts | 83° |
| 2026-05-04 02:05 | 34.05669 | 117.55210 | 114 ft | 5 kts | 85° |
| 2026-05-04 02:06 | 34.05673 | 117.55276 | 114 ft | 10 kts | 85° |
| 2026-05-04 02:06 | 34.05681 | 117.55381 | 113 ft | 15 kts | 85° |
| 2026-05-04 02:06 | 34.05690 | 117.55520 | 111 ft | 18 kts | 85° |
| 2026-05-04 02:06 | 34.05698 | 117.55664 | 113 ft | 14 kts | 86° |
| 2026-05-04 02:07 | 34.05706 | 117.55752 | 112 ft | 9 kts | 70° |
| 2026-05-04 02:07 | 34.05761 | 117.55776 | 112 ft | 9 kts | 23° |
| 2026-05-04 02:07 | 34.05785 | 117.55841 | 113 ft | 9 kts | 89° |
| 2026-05-04 02:07 | 34.05788 | 117.55922 | 113 ft | 11 kts | 86° |
| 2026-05-04 02:08 | 34.05795 | 117.56024 | 113 ft | 14 kts | 85° |
| 2026-05-04 02:08 | 34.05804 | 117.56151 | 111 ft | 16 kts | 85° |
| 2026-05-04 02:08 | 34.05813 | 117.56293 | 113 ft | 18 kts | 85° |
| 2026-05-04 02:08 | 34.05823 | 117.56445 | 112 ft | 19 kts | 85° |
| 2026-05-04 02:09 | 34.05833 | 117.56605 | 110 ft | 20 kts | 85° |
| 2026-05-04 02:09 | 34.05845 | 117.56771 | 112 ft | 20 kts | 85° |
| 2026-05-04 02:09 | 34.05855 | 117.56939 | 112 ft | 20 kts | 85° |
| 2026-05-04 02:09 | 34.05866 | 117.57103 | 112 ft | 19 kts | 85° |
| 2026-05-04 02:10 | 34.05877 | 117.57260 | 112 ft | 19 kts | 85° |
| 2026-05-04 02:10 | 34.05885 | 117.57391 | 113 ft | 7 kts | 85° |
| 2026-05-04 02:10 | 34.05888 | 117.57447 | 113 ft | 7 kts | 85° |
| 2026-05-04 02:10 | 34.05918 | 117.57481 | 113 ft | 7 kts | 359° |
| 2026-05-04 02:11 | 34.05940 | 117.57479 | 111 ft | 0 kts | 355° |
| 2026-05-04 02:11 | 34.05952 | 117.57477 | 112 ft | 4 kts | 355° |
| 2026-05-04 02:11 | 34.05984 | 117.57474 | 112 ft | 5 kts | 355° |
| 2026-05-04 02:12 | 34.06023 | 117.57469 | 111 ft | 6 kts | 352° |
| 2026-05-04 02:12 | 34.06051 | 117.57437 | 110 ft | 6 kts | 288° |
| 2026-05-04 02:12 | 34.06051 | 117.57398 | 110 ft | 0 kts | 265° |
| 2026-05-04 02:13 | 34.06045 | 117.57317 | 109 ft | 35 kts | 265° |
| 2026-05-04 02:13 | 34.06007 | 117.56718 | 107 ft | 106 kts | 265° |
| 2026-05-04 02:13 | 34.05930 | 117.55583 | 110 ft | 164 kts | 263° |
| 2026-05-04 02:13 | 34.05813 | 117.54141 | 630 ft | 175 kts | 263° |
| 2026-05-04 02:14 | 34.05710 | 117.52704 | 1459 ft | 176 kts | 264° |
| 2026-05-04 02:14 | 34.05605 | 117.51223 | 2283 ft | 174 kts | 262° |
| 2026-05-04 02:14 | 34.05522 | 117.49755 | 3067 ft | 175 kts | 262° |
| 2026-05-04 02:14 | 34.05453 | 117.48262 | 3790 ft | 185 kts | 264° |
| 2026-05-04 02:15 | 34.05355 | 117.46618 | 4196 ft | 208 kts | 258° |
| 2026-05-04 02:15 | 34.04776 | 117.44926 | 4439 ft | 229 kts | 241° |
| 2026-05-04 02:15 | 34.04021 | 117.43194 | 4904 ft | 242 kts | 244° |
| 2026-05-04 02:15 | 34.03234 | 117.41289 | 5245 ft | 263 kts | 245° |
| 2026-05-04 02:16 | 34.02444 | 117.39336 | 6116 ft | 260 kts | 245° |
| 2026-05-04 02:16 | 34.01645 | 117.37374 | 6904 ft | 264 kts | 246° |
| 2026-05-04 02:16 | 34.00837 | 117.35344 | 7573 ft | 271 kts | 246° |
| 2026-05-04 02:16 | 34.00020 | 117.33299 | 8425 ft | 272 kts | 246° |
| 2026-05-04 02:17 | 33.99176 | 117.31218 | 9093 ft | 279 kts | 246° |
| 2026-05-04 02:17 | 33.98325 | 117.29111 | 9870 ft | 282 kts | 246° |
| 2026-05-04 02:17 | 33.97468 | 117.26967 | 10585 ft | 286 kts | 246° |
| 2026-05-04 02:17 | 33.96559 | 117.24740 | 10841 ft | 308 kts | 245° |
| 2026-05-04 02:18 | 33.95380 | 117.22529 | 11026 ft | 333 kts | 228° |
| 2026-05-04 02:18 | 33.93424 | 117.20933 | 11473 ft | 350 kts | 203° |
| 2026-05-04 02:18 | 33.90984 | 117.20431 | 12070 ft | 363 kts | 182° |
| 2026-05-04 02:18 | 33.88435 | 117.20537 | 12688 ft | 370 kts | 179° |
| 2026-05-04 02:19 | 33.85850 | 117.20757 | 13388 ft | 375 kts | 178° |
| 2026-05-04 02:19 | 33.83230 | 117.20953 | 14059 ft | 380 kts | 179° |
| 2026-05-04 02:19 | 33.80576 | 117.21086 | 14694 ft | 384 kts | 180° |
| 2026-05-04 02:19 | 33.77902 | 117.21183 | 15417 ft | 386 kts | 181° |
| 2026-05-04 02:20 | 33.75246 | 117.21261 | 16171 ft | 387 kts | 182° |
| 2026-05-04 02:20 | 33.72540 | 117.21349 | 16565 ft | 389 kts | 181° |
| 2026-05-04 02:20 | 33.69814 | 117.21458 | 16721 ft | 391 kts | 181° |
| 2026-05-04 02:20 | 33.67111 | 117.21563 | 16760 ft | 389 kts | 181° |
| 2026-05-04 02:21 | 33.64398 | 117.21665 | 16809 ft | 393 kts | 181° |
| 2026-05-04 02:21 | 33.61646 | 117.21779 | 17385 ft | 397 kts | 181° |
| 2026-05-04 02:21 | 33.58874 | 117.21908 | 18095 ft | 400 kts | 181° |
| 2026-05-04 02:21 | 33.56113 | 117.22034 | 18617 ft | 406 kts | 182° |
| 2026-05-04 02:22 | 33.53279 | 117.22154 | 19213 ft | 408 kts | 181° |
| 2026-05-04 02:22 | 33.50439 | 117.22291 | 19852 ft | 409 kts | 181° |
| 2026-05-04 02:22 | 33.47582 | 117.22436 | 20441 ft | 411 kts | 181° |
| 2026-05-04 02:22 | 33.44712 | 117.22581 | 20986 ft | 415 kts | 181° |
| 2026-05-04 02:23 | 33.41817 | 117.22723 | 21513 ft | 418 kts | 181° |
| 2026-05-04 02:23 | 33.38900 | 117.22864 | 22031 ft | 421 kts | 181° |
| 2026-05-04 02:23 | 33.36017 | 117.23000 | 22415 ft | 419 kts | 181° |
| 2026-05-04 02:23 | 33.33098 | 117.23137 | 22480 ft | 422 kts | 181° |
| 2026-05-04 02:24 | 33.30150 | 117.23273 | 22522 ft | 425 kts | 181° |
| 2026-05-04 02:24 | 33.27192 | 117.23408 | 22620 ft | 426 kts | 181° |
| 2026-05-04 02:24 | 33.24221 | 117.23544 | 22833 ft | 430 kts | 181° |
| 2026-05-04 02:24 | 33.21220 | 117.23681 | 23371 ft | 432 kts | 181° |
| 2026-05-04 02:25 | 33.18212 | 117.23819 | 23910 ft | 433 kts | 181° |
| 2026-05-04 02:25 | 33.15202 | 117.23958 | 24376 ft | 434 kts | 181° |
| 2026-05-04 02:25 | 33.12207 | 117.24095 | 24803 ft | 436 kts | 181° |
| 2026-05-04 02:25 | 33.09170 | 117.24234 | 25207 ft | 439 kts | 181° |
| 2026-05-04 02:26 | 33.06113 | 117.24373 | 25624 ft | 440 kts | 182° |
| 2026-05-04 02:26 | 33.03044 | 117.24513 | 26049 ft | 442 kts | 182° |
| 2026-05-04 02:26 | 32.99964 | 117.24654 | 26459 ft | 443 kts | 182° |
| 2026-05-04 02:26 | 32.96869 | 117.24795 | 26863 ft | 445 kts | 182° |
| 2026-05-04 02:27 | 32.93809 | 117.24934 | 27259 ft | 446 kts | 183° |
| 2026-05-04 02:27 | 32.90701 | 117.25076 | 27635 ft | 448 kts | 183° |
| 2026-05-04 02:27 | 32.87582 | 117.25218 | 28047 ft | 449 kts | 184° |
| 2026-05-04 02:27 | 32.84456 | 117.25361 | 28441 ft | 450 kts | 184° |
| 2026-05-04 02:28 | 32.81324 | 117.25503 | 28826 ft | 450 kts | 184° |
| 2026-05-04 02:28 | 32.78194 | 117.25646 | 29262 ft | 450 kts | 185° |
| 2026-05-04 02:28 | 32.75077 | 117.25790 | 29871 ft | 445 kts | 185° |
| 2026-05-04 02:28 | 32.72004 | 117.25934 | 30506 ft | 439 kts | 186° |
| 2026-05-04 02:29 | 32.69014 | 117.26074 | 30993 ft | 435 kts | 186° |
| 2026-05-04 02:29 | 32.65995 | 117.26211 | 31379 ft | 433 kts | 187° |
| 2026-05-04 02:29 | 32.62987 | 117.26345 | 31743 ft | 432 kts | 187° |
| 2026-05-04 02:29 | 32.59984 | 117.26479 | 32135 ft | 431 kts | 187° |